createdAt,value
2023-04-27T00:00:43.143Z,73.84
2023-04-27T00:01:43.141Z,73.84
2023-04-27T00:02:43.196Z,73.43
2023-04-27T00:03:43.245Z,73.74
2023-04-27T00:04:43.098Z,73.63
2023-04-27T00:05:43.105Z,73.32
2023-04-27T00:06:42.741Z,73.11
2023-04-27T00:07:42.690Z,72.81
2023-04-27T00:08:42.602Z,72.91
2023-04-27T00:09:42.601Z,72.81
2023-04-27T00:10:42.520Z,72.19
2023-04-27T00:11:42.417Z,72.29
2023-04-27T00:12:42.397Z,72.29
2023-04-27T00:13:42.312Z,72.29
2023-04-27T00:14:42.249Z,72.50
2023-04-27T00:15:42.248Z,73.11
2023-04-27T00:16:42.177Z,73.84
2023-04-27T00:17:42.116Z,73.63
2023-04-27T00:18:41.981Z,73.74
2023-04-27T00:19:41.936Z,74.26
2023-04-27T00:20:41.861Z,74.05
2023-04-27T00:21:41.814Z,74.05
2023-04-27T00:22:41.712Z,74.46
2023-04-27T00:23:41.670Z,74.71
2023-04-27T00:24:41.610Z,74.71
2023-04-27T00:25:41.604Z,74.81
2023-04-27T00:26:41.450Z,75.02
2023-04-27T00:27:41.446Z,75.43
2023-04-27T00:28:42.169Z,75.57
2023-04-27T00:29:41.273Z,75.57
2023-04-27T00:30:41.254Z,75.67
2023-04-27T00:31:41.212Z,75.88
2023-04-27T00:32:41.167Z,75.74
2023-04-27T00:33:41.677Z,75.53
2023-04-27T00:35:01.995Z,75.32
2023-04-27T00:35:40.963Z,75.22
2023-04-27T00:36:40.888Z,75.53
2023-04-27T00:37:40.752Z,75.53
2023-04-27T00:38:40.775Z,75.12
2023-04-27T00:39:40.649Z,75.22
2023-04-27T00:40:40.630Z,75.12
2023-04-27T00:41:40.496Z,75.53
2023-04-27T00:42:40.508Z,75.95
2023-04-27T00:43:40.456Z,75.84
2023-04-27T00:44:40.378Z,76.29
2023-04-27T00:45:40.303Z,76.09
2023-04-27T00:46:40.254Z,76.09
2023-04-27T00:47:40.234Z,76.19
2023-04-27T00:48:40.049Z,76.19
2023-04-27T00:49:39.997Z,76.26
2023-04-27T00:50:39.976Z,76.36
2023-04-27T00:51:39.890Z,76.46
2023-04-27T00:52:39.846Z,76.46
2023-04-27T00:53:39.764Z,76.98
2023-04-27T00:54:39.701Z,77.29
2023-04-27T00:55:39.616Z,77.19
2023-04-27T00:56:39.603Z,76.88
2023-04-27T00:57:39.534Z,76.26
2023-04-27T00:58:39.466Z,75.84
2023-04-27T00:59:39.383Z,75.53
2023-04-27T01:00:39.340Z,75.53
2023-04-27T01:01:39.315Z,75.32
2023-04-27T01:02:39.423Z,75.40
2023-04-27T01:03:39.395Z,75.29
2023-04-27T01:04:39.190Z,74.98
2023-04-27T01:05:39.043Z,74.98
2023-04-27T01:06:38.960Z,75.09
2023-04-27T01:07:38.881Z,74.77
2023-04-27T01:08:38.805Z,74.46
2023-04-27T01:09:38.719Z,74.46
2023-04-27T01:10:56.092Z,74.57
2023-04-27T01:11:38.625Z,74.36
2023-04-27T01:12:38.578Z,74.88
2023-04-27T01:13:38.463Z,74.98
2023-04-27T01:14:38.419Z,74.46
2023-04-27T01:15:38.394Z,74.46
2023-04-27T01:16:38.288Z,74.88
2023-04-27T01:17:38.257Z,75.19
2023-04-27T01:18:38.194Z,75.81
2023-04-27T01:19:38.070Z,76.02
2023-04-27T01:20:38.052Z,75.60
2023-04-27T01:21:37.989Z,75.50
2023-04-27T01:22:37.954Z,75.50
2023-04-27T01:23:37.850Z,75.50
2023-04-27T01:24:37.795Z,75.60
2023-04-27T01:25:37.726Z,75.81
2023-04-27T01:26:37.686Z,75.67
2023-04-27T01:27:37.591Z,75.36
2023-04-27T01:29:47.751Z,75.05
2023-04-27T01:30:47.658Z,74.95
2023-04-27T01:31:47.761Z,74.74
2023-04-27T01:32:47.566Z,74.74
2023-04-27T01:33:47.500Z,74.53
2023-04-27T01:34:47.458Z,74.63
2023-04-27T01:35:47.411Z,74.63
2023-04-27T01:36:47.299Z,74.63
2023-04-27T01:37:47.243Z,74.43
2023-04-27T01:38:47.207Z,74.22
2023-04-27T01:39:47.143Z,74.12
2023-04-27T01:40:47.080Z,74.02
2023-04-27T01:41:47.003Z,74.53
2023-04-27T01:42:47.527Z,74.74
2023-04-27T01:43:46.888Z,74.63
2023-04-27T01:44:46.796Z,74.53
2023-04-27T01:45:46.737Z,74.63
2023-04-27T01:46:46.782Z,74.53
2023-04-27T01:48:23.604Z,74.74
2023-04-27T01:48:46.523Z,74.84
2023-04-27T01:49:46.477Z,75.15
2023-04-27T01:50:46.390Z,75.26
2023-04-27T01:51:46.377Z,75.57
2023-04-27T01:52:46.267Z,75.88
2023-04-27T01:53:46.274Z,76.12
2023-04-27T01:54:46.172Z,76.02
2023-04-27T01:55:46.107Z,76.23
2023-04-27T01:56:46.043Z,76.32
2023-04-27T01:57:45.949Z,76.43
2023-04-27T01:58:45.913Z,76.95
2023-04-27T01:59:45.865Z,76.84
2023-04-27T02:00:45.791Z,77.29
2023-04-27T02:01:45.777Z,77.29
2023-04-27T02:02:45.855Z,77.40
2023-04-27T02:03:45.769Z,77.40
2023-04-27T02:04:45.650Z,77.92
2023-04-27T02:07:54.803Z,78.12
2023-04-27T02:08:55.671Z,78.02
2023-04-27T02:09:55.630Z,78.02
2023-04-27T02:10:55.565Z,77.29
2023-04-27T02:11:55.538Z,77.09
2023-04-27T02:12:55.449Z,77.29
2023-04-27T02:13:55.391Z,77.29
2023-04-27T02:14:55.336Z,76.78
2023-04-27T02:15:55.329Z,76.64
2023-04-27T02:16:55.197Z,76.64
2023-04-27T02:17:55.167Z,76.74
2023-04-27T02:18:55.071Z,76.64
2023-04-27T02:19:54.996Z,76.43
2023-04-27T02:20:54.961Z,76.12
2023-04-27T02:21:54.839Z,75.29
2023-04-27T02:22:54.778Z,75.50
2023-04-27T02:23:54.722Z,75.40
2023-04-27T02:24:55.516Z,75.19
2023-04-27T02:25:54.614Z,74.77
2023-04-27T02:26:54.552Z,74.26
2023-04-27T02:27:54.487Z,74.36
2023-04-27T02:28:54.448Z,74.26
2023-04-27T02:29:54.358Z,74.46
2023-04-27T02:30:54.614Z,74.88
2023-04-27T02:31:54.321Z,74.77
2023-04-27T02:32:54.223Z,74.67
2023-04-27T02:33:54.092Z,74.26
2023-04-27T02:34:54.040Z,74.26
2023-04-27T02:35:54.039Z,74.46
2023-04-27T02:36:53.906Z,74.46
2023-04-27T02:37:53.850Z,74.36
2023-04-27T02:38:53.762Z,74.57
2023-04-27T02:39:53.698Z,74.67
2023-04-27T02:40:53.671Z,74.46
2023-04-27T02:41:53.570Z,74.26
2023-04-27T02:43:11.046Z,73.94
2023-04-27T02:43:53.440Z,73.84
2023-04-27T02:44:53.413Z,73.84
2023-04-27T02:45:53.309Z,73.94
2023-04-27T02:46:53.352Z,74.02
2023-04-27T02:47:53.296Z,74.02
2023-04-27T02:48:53.137Z,73.91
2023-04-27T02:49:53.092Z,73.91
2023-04-27T02:50:54.020Z,74.22
2023-04-27T02:51:52.984Z,74.36
2023-04-27T02:52:52.905Z,74.26
2023-04-27T02:53:52.803Z,74.77
2023-04-27T02:54:52.784Z,74.88
2023-04-27T02:55:52.702Z,75.09
2023-04-27T02:56:52.702Z,75.40
2023-04-27T02:57:52.587Z,75.29
2023-04-27T02:58:52.566Z,75.60
2023-04-27T02:59:52.457Z,75.71
2023-04-27T03:01:13.414Z,75.50
2023-04-27T03:01:52.322Z,75.60
2023-04-27T03:02:52.390Z,76.05
2023-04-27T03:03:52.396Z,76.05
2023-04-27T03:04:52.998Z,75.95
2023-04-27T03:05:52.095Z,75.95
2023-04-27T03:06:51.992Z,76.15
2023-04-27T03:07:51.915Z,76.57
2023-04-27T03:08:51.910Z,76.67
2023-04-27T03:09:51.794Z,76.46
2023-04-27T03:10:54.358Z,76.36
2023-04-27T03:11:51.714Z,76.57
2023-04-27T03:13:09.021Z,76.46
2023-04-27T03:13:51.590Z,76.46
2023-04-27T03:14:52.184Z,76.46
2023-04-27T03:15:51.464Z,76.46
2023-04-27T03:16:51.452Z,76.67
2023-04-27T03:17:51.362Z,76.88
2023-04-27T03:19:08.612Z,76.88
2023-04-27T03:19:51.203Z,76.78
2023-04-27T03:20:51.088Z,77.02
2023-04-27T03:21:51.074Z,76.92
2023-04-27T03:22:50.999Z,76.61
2023-04-27T03:23:50.948Z,76.78
2023-04-27T03:24:50.865Z,76.57
2023-04-27T03:25:50.821Z,76.46
2023-04-27T03:26:50.708Z,76.57
2023-04-27T03:27:50.700Z,76.57
2023-04-27T03:28:50.635Z,76.78
2023-04-27T03:29:50.546Z,76.88
2023-04-27T03:30:50.510Z,76.92
2023-04-27T03:31:50.439Z,77.09
2023-04-27T03:32:50.356Z,76.92
2023-04-27T03:33:50.207Z,77.44
2023-04-27T03:34:50.256Z,77.44
2023-04-27T03:35:50.152Z,77.54
2023-04-27T03:37:11.025Z,77.44
2023-04-27T03:37:49.981Z,77.44
2023-04-27T03:38:50.499Z,77.02
2023-04-27T03:39:49.851Z,76.81
2023-04-27T03:40:49.831Z,76.81
2023-04-27T03:41:49.732Z,76.71
2023-04-27T03:42:49.710Z,76.61
2023-04-27T03:43:49.601Z,76.50
2023-04-27T03:44:49.548Z,76.92
2023-04-27T03:45:49.576Z,77.02
2023-04-27T03:46:49.472Z,77.12
2023-04-27T03:47:49.373Z,77.02
2023-04-27T03:48:49.296Z,76.71
2023-04-27T03:49:50.714Z,76.81
2023-04-27T03:50:49.152Z,76.81
2023-04-27T03:51:49.088Z,76.92
2023-04-27T03:52:49.029Z,76.61
2023-04-27T03:53:48.988Z,76.29
2023-04-27T03:54:48.977Z,76.29
2023-04-27T03:55:48.868Z,76.50
2023-04-27T03:56:48.792Z,76.40
2023-04-27T03:57:48.708Z,76.29
2023-04-27T03:58:48.657Z,76.19
2023-04-27T03:59:48.612Z,76.09
2023-04-27T04:00:49.535Z,76.09
2023-04-27T04:01:48.515Z,75.98
2023-04-27T04:02:48.628Z,75.98
2023-04-27T04:03:48.485Z,75.98
2023-04-27T04:04:48.318Z,75.78
2023-04-27T04:05:48.206Z,75.88
2023-04-27T04:06:48.138Z,76.09
2023-04-27T04:07:48.070Z,76.09
2023-04-27T04:08:48.038Z,76.19
2023-04-27T04:09:47.967Z,76.40
2023-04-27T04:10:47.882Z,76.50
2023-04-27T04:11:47.844Z,76.29
2023-04-27T04:14:27.418Z,75.67
2023-04-27T04:15:28.388Z,75.78
2023-04-27T04:16:29.050Z,75.78
2023-04-27T04:17:28.364Z,75.78
2023-04-27T04:18:28.241Z,75.78
2023-04-27T04:19:28.139Z,76.09
2023-04-27T04:20:28.053Z,75.88
2023-04-27T04:21:28.163Z,75.26
2023-04-27T04:22:27.924Z,75.26
2023-04-27T04:23:27.852Z,75.36
2023-04-27T04:24:27.767Z,75.22
2023-04-27T04:25:27.781Z,75.26
2023-04-27T04:26:27.687Z,75.43
2023-04-27T04:27:27.638Z,75.53
2023-04-27T04:28:27.572Z,75.84
2023-04-27T04:29:27.500Z,75.63
2023-04-27T04:30:27.449Z,75.53
2023-04-27T04:31:44.746Z,75.22
2023-04-27T04:32:27.317Z,75.43
2023-04-27T04:33:27.248Z,75.43
2023-04-27T04:34:27.162Z,75.12
2023-04-27T04:35:27.095Z,75.22
2023-04-27T04:36:27.055Z,75.63
2023-04-27T04:37:27.272Z,75.32
2023-04-27T04:38:26.925Z,75.43
2023-04-27T04:39:26.857Z,75.74
2023-04-27T04:40:26.749Z,76.57
2023-04-27T04:41:26.744Z,76.88
2023-04-27T04:42:26.673Z,76.57
2023-04-27T04:43:26.594Z,76.26
2023-04-27T04:44:26.504Z,76.88
2023-04-27T04:45:26.484Z,76.78
2023-04-27T04:46:26.423Z,76.67
2023-04-27T04:47:26.405Z,76.36
2023-04-27T04:48:26.252Z,76.67
2023-04-27T04:49:47.179Z,76.46
2023-04-27T04:50:26.116Z,76.46
2023-04-27T04:51:26.105Z,76.36
2023-04-27T04:52:26.005Z,76.36
2023-04-27T04:53:26.010Z,76.26
2023-04-27T04:54:25.887Z,76.15
2023-04-27T04:55:25.826Z,76.26
2023-04-27T04:56:25.797Z,76.98
2023-04-27T04:57:25.691Z,77.29
2023-04-27T04:58:25.633Z,77.50
2023-04-27T04:59:25.568Z,77.71
2023-04-27T05:00:25.482Z,77.50
2023-04-27T05:01:25.447Z,77.40
2023-04-27T05:02:25.508Z,77.09
2023-04-27T05:03:25.481Z,76.78
2023-04-27T05:04:25.486Z,77.29
2023-04-27T05:05:25.187Z,76.64
2023-04-27T05:06:25.114Z,76.53
2023-04-27T05:07:25.253Z,76.43
2023-04-27T05:08:25.970Z,76.12
2023-04-27T05:09:24.946Z,76.23
2023-04-27T05:10:24.863Z,76.23
2023-04-27T05:11:24.803Z,76.02
2023-04-27T05:12:24.738Z,76.02
2023-04-27T05:13:24.721Z,75.88
2023-04-27T05:14:24.640Z,76.09
2023-04-27T05:15:24.559Z,76.61
2023-04-27T05:16:24.551Z,76.50
2023-04-27T05:17:24.458Z,76.81
2023-04-27T05:18:24.388Z,76.50
2023-04-27T05:19:24.356Z,75.67
2023-04-27T05:20:24.254Z,75.98
2023-04-27T05:21:24.199Z,76.71
2023-04-27T05:22:24.983Z,75.78
2023-04-27T05:23:24.046Z,76.09
2023-04-27T05:24:23.951Z,75.78
2023-04-27T05:25:23.946Z,76.09
2023-04-27T05:26:23.854Z,76.19
2023-04-27T05:27:23.768Z,76.19
2023-04-27T05:28:23.758Z,75.88
2023-04-27T05:29:23.633Z,75.57
2023-04-27T05:30:23.629Z,75.05
2023-04-27T05:31:23.572Z,75.57
2023-04-27T05:32:24.451Z,75.46
2023-04-27T05:33:23.383Z,75.78
2023-04-27T05:34:23.326Z,75.36
2023-04-27T05:35:23.292Z,75.05
2023-04-27T05:36:23.431Z,75.36
2023-04-27T05:37:25.555Z,75.57
2023-04-27T05:38:23.151Z,74.81
2023-04-27T05:39:23.747Z,75.22
2023-04-27T05:40:23.009Z,74.71
2023-04-27T05:41:24.303Z,74.40
2023-04-27T05:42:23.858Z,75.02
2023-04-27T05:43:25.703Z,75.53
2023-04-27T05:44:23.568Z,75.43
2023-04-27T05:45:22.852Z,75.22
2023-04-27T05:46:22.640Z,75.70
2023-04-27T05:47:22.668Z,74.57
2023-04-27T05:48:22.467Z,73.74
2023-04-27T05:49:22.921Z,73.33
2023-04-27T05:50:22.507Z,73.43
2023-04-27T05:51:22.265Z,73.54
2023-04-27T05:52:22.211Z,73.94
2023-04-27T05:53:22.139Z,74.46
2023-04-27T05:54:22.118Z,74.15
2023-04-27T05:55:22.075Z,74.15
2023-04-27T05:56:21.951Z,74.36
2023-04-27T05:57:21.910Z,74.36
2023-04-27T05:58:21.860Z,73.84
2023-04-27T05:59:21.834Z,73.43
2023-04-27T06:00:21.734Z,73.74
2023-04-27T06:01:38.959Z,74.12
2023-04-27T06:02:21.629Z,73.71
2023-04-27T06:03:21.742Z,72.88
2023-04-27T06:04:21.610Z,73.29
2023-04-27T06:05:22.300Z,73.19
2023-04-27T06:06:21.316Z,72.88
2023-04-27T06:07:21.288Z,73.19
2023-04-27T06:08:21.210Z,73.50
2023-04-27T06:09:21.732Z,73.08
2023-04-27T06:10:21.090Z,72.74
2023-04-27T06:11:20.993Z,72.95
2023-04-27T06:12:21.211Z,73.16
2023-04-27T06:13:21.142Z,73.36
2023-04-27T06:14:20.795Z,72.22
2023-04-27T06:15:20.737Z,71.78
2023-04-27T06:16:20.737Z,72.19
2023-04-27T06:17:20.631Z,71.88
2023-04-27T06:18:21.230Z,71.57
2023-04-27T06:19:20.537Z,71.26
2023-04-27T06:20:20.445Z,71.75
2023-04-27T06:21:20.330Z,72.36
2023-04-27T06:22:20.313Z,72.13
2023-04-27T06:23:20.233Z,71.44
2023-04-27T06:24:20.169Z,70.28
2023-04-27T06:25:20.219Z,69.42
2023-04-27T06:26:20.041Z,67.77
2023-04-27T06:27:20.048Z,67.97
2023-04-27T06:28:19.920Z,68.77
2023-04-27T06:29:19.833Z,68.12
2023-04-27T06:30:19.832Z,66.34
2023-04-27T06:31:19.832Z,66.03
2023-04-27T06:32:19.700Z,66.00
2023-04-27T06:33:19.599Z,64.66
2023-04-27T06:34:19.554Z,64.76
2023-04-27T06:35:19.463Z,63.62
2023-04-27T06:36:19.459Z,61.44
2023-04-27T06:39:57.760Z,62.27
2023-04-27T06:40:59.180Z,63.13
2023-04-27T06:41:58.554Z,63.24
2023-04-27T06:42:58.568Z,62.65
2023-04-27T06:43:59.015Z,63.24
2023-04-27T06:44:58.423Z,61.80
2023-04-27T06:45:58.521Z,62.96
2023-04-27T06:46:58.258Z,63.89
2023-04-27T06:47:58.263Z,63.06
2023-04-27T06:48:58.133Z,62.78
2023-04-27T06:49:58.108Z,62.85
2023-04-27T06:50:58.729Z,63.27
2023-04-27T06:51:58.724Z,62.55
2023-04-27T06:52:57.955Z,62.52
2023-04-27T06:53:57.879Z,63.34
2023-04-27T06:54:57.738Z,61.60
2023-04-27T06:55:57.696Z,62.15
2023-04-27T06:56:57.606Z,60.58
2023-04-27T06:57:57.543Z,59.50
2023-04-27T06:58:57.563Z,57.48
2023-04-27T06:59:57.445Z,57.02
2023-04-27T07:00:57.392Z,55.30
2023-04-27T07:01:57.351Z,54.00
2023-04-27T07:02:57.368Z,55.46
2023-04-27T07:03:57.380Z,56.53
2023-04-27T07:04:57.246Z,54.67
2023-04-27T07:05:57.066Z,54.77
2023-04-27T07:06:56.991Z,55.43
2023-04-27T07:07:56.960Z,52.66
2023-04-27T07:08:56.911Z,52.78
2023-04-27T07:09:56.925Z,53.27
2023-04-27T07:10:56.767Z,53.16
2023-04-27T07:11:56.689Z,54.11
2023-04-27T07:12:56.605Z,54.57
2023-04-27T07:15:05.775Z,55.38
2023-04-27T07:16:06.707Z,56.25
2023-04-27T07:17:06.626Z,57.20
2023-04-27T07:18:06.679Z,57.33
2023-04-27T07:19:06.507Z,57.38
2023-04-27T07:20:06.516Z,58.27
2023-04-27T07:21:06.417Z,57.56
2023-04-27T07:22:06.334Z,56.92
2023-04-27T07:23:06.278Z,55.00
2023-04-27T07:24:06.236Z,54.72
2023-04-27T07:25:06.648Z,55.97
2023-04-27T07:26:06.665Z,55.02
2023-04-27T07:27:06.029Z,54.57
2023-04-27T07:28:05.958Z,52.88
2023-04-27T07:29:14.434Z,52.25
2023-04-27T07:30:05.816Z,51.56
2023-04-27T07:31:05.773Z,52.27
2023-04-27T07:32:23.172Z,52.55
2023-04-27T07:33:05.757Z,54.03
2023-04-27T07:34:05.654Z,55.58
2023-04-27T07:35:05.578Z,55.15
2023-04-27T07:36:05.481Z,55.30
2023-04-27T07:37:05.413Z,53.62
2023-04-27T07:38:05.917Z,51.61
2023-04-27T07:39:05.271Z,51.56
2023-04-27T07:40:05.238Z,50.75
2023-04-27T07:41:05.141Z,50.83
2023-04-27T07:42:05.085Z,49.79
2023-04-27T07:43:04.985Z,48.90
2023-04-27T07:44:04.985Z,49.53
2023-04-27T07:45:04.864Z,50.09
2023-04-27T07:46:04.839Z,50.74
2023-04-27T07:47:04.778Z,52.07
2023-04-27T07:48:05.596Z,52.02
2023-04-27T07:49:04.628Z,51.77
2023-04-27T07:50:39.215Z,49.18
2023-04-27T07:51:04.534Z,47.79
2023-04-27T07:52:04.450Z,47.14
2023-04-27T07:53:04.373Z,45.64
2023-04-27T07:54:04.347Z,47.81
2023-04-27T07:55:04.233Z,47.89
2023-04-27T07:56:04.171Z,48.10
2023-04-27T07:57:04.107Z,47.00
2023-04-27T07:58:04.086Z,47.66
2023-04-27T07:59:03.986Z,48.28
2023-04-27T08:00:03.955Z,48.92
2023-04-27T08:01:03.863Z,48.94
2023-04-27T08:02:18.394Z,49.32
2023-04-27T08:03:04.887Z,51.51
2023-04-27T08:04:04.966Z,51.65
2023-04-27T08:05:06.223Z,52.72
2023-04-27T08:06:05.881Z,54.18
2023-04-27T08:07:03.994Z,54.85
2023-04-27T08:08:04.592Z,56.20
2023-04-27T08:09:03.356Z,56.54
2023-04-27T08:10:03.260Z,56.74
2023-04-27T08:11:03.379Z,57.05
2023-04-27T08:12:03.171Z,57.89
2023-04-27T08:13:03.141Z,57.18
2023-04-27T08:14:03.071Z,57.28
2023-04-27T08:15:03.006Z,57.41
2023-04-27T08:16:02.907Z,59.15
2023-04-27T08:17:03.703Z,58.33
2023-04-27T08:18:02.854Z,58.95
2023-04-27T08:19:02.786Z,58.64
2023-04-27T08:20:02.698Z,58.23
2023-04-27T08:21:02.617Z,59.74
2023-04-27T08:22:02.570Z,57.97
2023-04-27T08:23:02.505Z,57.53
2023-04-27T08:24:02.412Z,55.66
2023-04-27T08:25:02.378Z,55.54
2023-04-27T08:26:02.317Z,54.41
2023-04-27T08:27:02.259Z,54.31
2023-04-27T08:28:02.189Z,55.41
2023-04-27T08:29:08.803Z,55.82
2023-04-27T08:30:02.041Z,54.80
2023-04-27T08:31:02.010Z,54.49
2023-04-27T08:33:11.137Z,55.54
2023-04-27T08:34:12.564Z,54.31
2023-04-27T08:35:11.958Z,55.33
2023-04-27T08:36:11.906Z,54.49
2023-04-27T08:37:11.827Z,53.98
2023-04-27T08:38:11.759Z,53.03
2023-04-27T08:39:11.874Z,52.27
2023-04-27T08:40:11.609Z,51.51
2023-04-27T08:41:21.450Z,51.53
2023-04-27T08:42:11.508Z,51.68
2023-04-27T08:43:11.453Z,50.77
2023-04-27T08:44:11.420Z,50.03
2023-04-27T08:45:11.306Z,49.35
2023-04-27T08:46:11.291Z,49.00
2023-04-27T08:47:11.251Z,48.02
2023-04-27T08:48:11.214Z,46.06
2023-04-27T08:49:11.241Z,45.64
2023-04-27T08:50:11.052Z,44.73
2023-04-27T08:51:10.956Z,44.68
2023-04-27T08:52:10.888Z,46.05
2023-04-27T08:53:10.794Z,46.58
2023-04-27T08:54:10.787Z,47.95
2023-04-27T08:55:10.718Z,48.99
2023-04-27T08:56:10.676Z,48.32
2023-04-27T08:57:10.569Z,48.93
2023-04-27T08:58:10.533Z,48.91
2023-04-27T08:59:10.437Z,48.79
2023-04-27T09:00:10.379Z,47.77
2023-04-27T09:01:10.291Z,47.77
2023-04-27T09:03:49.399Z,47.42
2023-04-27T09:04:50.205Z,46.91
2023-04-27T09:06:03.461Z,47.01
2023-04-27T09:06:49.989Z,47.78
2023-04-27T09:07:49.882Z,47.67
2023-04-27T09:08:49.918Z,46.33
2023-04-27T09:09:49.779Z,46.17
2023-04-27T09:10:49.676Z,45.99
2023-04-27T09:11:49.654Z,46.70
2023-04-27T09:12:49.559Z,46.09
2023-04-27T09:13:49.577Z,46.32
2023-04-27T09:14:49.434Z,47.16
2023-04-27T09:15:49.450Z,47.28
2023-04-27T09:16:49.388Z,47.61
2023-04-27T09:17:49.362Z,49.57
2023-04-27T09:18:49.186Z,49.18
2023-04-27T09:20:27.180Z,49.08
2023-04-27T09:20:49.249Z,49.41
2023-04-27T09:21:48.991Z,48.39
2023-04-27T09:22:48.953Z,49.90
2023-04-27T09:23:48.882Z,50.00
2023-04-27T09:24:48.810Z,49.90
2023-04-27T09:25:48.722Z,48.57
2023-04-27T09:26:48.692Z,47.14
2023-04-27T09:27:48.676Z,47.96
2023-04-27T09:28:48.586Z,47.96
2023-04-27T09:29:48.473Z,45.84
2023-04-27T09:30:49.138Z,47.29
2023-04-27T09:31:48.426Z,48.10
2023-04-27T09:32:48.349Z,46.47
2023-04-27T09:33:48.271Z,47.49
2023-04-27T09:34:48.202Z,49.33
2023-04-27T09:35:48.189Z,49.43
2023-04-27T09:36:48.065Z,49.63
2023-04-27T09:38:08.975Z,50.25
2023-04-27T09:38:47.907Z,50.53
2023-04-27T09:39:48.438Z,49.51
2023-04-27T09:40:47.794Z,48.72
2023-04-27T09:41:47.720Z,47.20
2023-04-27T09:42:47.663Z,47.64
2023-04-27T09:43:47.658Z,46.53
2023-04-27T09:44:47.541Z,47.48
2023-04-27T09:45:47.505Z,48.73
2023-04-27T09:46:47.465Z,50.78
2023-04-27T09:47:47.407Z,50.98
2023-04-27T09:48:47.282Z,50.16
2023-04-27T09:49:47.243Z,50.37
2023-04-27T09:50:47.218Z,51.50
2023-04-27T09:51:47.139Z,50.16
2023-04-27T09:52:47.106Z,52.39
2023-04-27T09:53:46.974Z,52.39
2023-04-27T09:54:46.968Z,50.93
2023-04-27T09:55:46.854Z,48.27
2023-04-27T09:56:46.818Z,47.33
2023-04-27T09:57:46.722Z,48.66
2023-04-27T09:58:46.697Z,47.72
2023-04-27T09:59:47.661Z,46.37
2023-04-27T10:00:46.621Z,45.84
2023-04-27T10:01:46.590Z,47.14
2023-04-27T10:02:53.211Z,47.22
2023-04-27T10:03:46.512Z,47.53
2023-04-27T10:04:46.327Z,46.69
2023-04-27T10:05:46.283Z,44.45
2023-04-27T10:06:46.272Z,44.37
2023-04-27T10:07:46.180Z,45.28
2023-04-27T10:08:46.067Z,46.12
2023-04-27T10:09:46.028Z,46.83
2023-04-27T10:10:46.001Z,46.22
2023-04-27T10:11:45.905Z,47.24
2023-04-27T10:12:46.254Z,45.92
2023-04-27T10:14:03.125Z,46.33
2023-04-27T10:14:46.026Z,46.02
2023-04-27T10:15:45.762Z,46.53
2023-04-27T10:16:45.656Z,46.04
2023-04-27T10:17:45.712Z,48.21
2023-04-27T10:18:46.233Z,47.80
2023-04-27T10:19:46.148Z,48.21
2023-04-27T10:20:46.660Z,48.10
2023-04-27T10:21:45.236Z,47.61
2023-04-27T10:22:45.215Z,48.25
2023-04-27T10:23:45.293Z,48.25
2023-04-27T10:24:45.660Z,48.02
2023-04-27T10:25:44.981Z,47.64
2023-04-27T10:26:44.927Z,49.38
2023-04-27T10:27:44.850Z,48.79
2023-04-27T10:28:44.777Z,48.68
2023-04-27T10:29:44.720Z,49.09
2023-04-27T10:30:46.438Z,48.35
2023-04-27T10:31:44.632Z,48.46
2023-04-27T10:32:46.695Z,49.13
2023-04-27T10:33:46.109Z,49.43
2023-04-27T10:34:44.424Z,47.69
2023-04-27T10:35:44.396Z,48.39
2023-04-27T10:36:44.345Z,49.30
2023-04-27T10:37:44.287Z,48.14
2023-04-27T10:38:44.150Z,46.48
2023-04-27T10:39:49.084Z,45.06
2023-04-27T10:40:44.079Z,45.57
2023-04-27T10:41:45.150Z,47.99
2023-04-27T10:42:44.047Z,45.85
2023-04-27T10:43:44.025Z,44.81
2023-04-27T10:44:43.926Z,44.51
2023-04-27T10:45:43.736Z,46.03
2023-04-27T10:46:43.766Z,44.53
2023-04-27T10:47:44.667Z,44.20
2023-04-27T10:48:44.325Z,45.32
2023-04-27T10:49:44.206Z,46.83
2023-04-27T10:50:43.915Z,45.48
2023-04-27T10:51:43.449Z,43.85
2023-04-27T10:52:43.328Z,42.14
2023-04-27T10:53:43.252Z,42.57
2023-04-27T10:54:43.206Z,42.90
2023-04-27T10:56:17.964Z,42.92
2023-04-27T10:56:45.656Z,44.04
2023-04-27T10:57:43.053Z,43.51
2023-04-27T10:58:48.877Z,43.81
2023-04-27T10:59:42.904Z,44.51
2023-04-27T11:00:42.774Z,43.79
2023-04-27T11:01:42.777Z,44.63
2023-04-27T11:02:42.777Z,44.43
2023-04-27T11:03:42.796Z,43.43
2023-04-27T11:04:43.732Z,44.04
2023-04-27T11:05:42.568Z,44.16
2023-04-27T11:06:42.395Z,43.98
2023-04-27T11:07:42.381Z,43.88
2023-04-27T11:08:42.369Z,45.40
2023-04-27T11:09:42.992Z,45.10
2023-04-27T11:10:42.139Z,46.53
2023-04-27T11:11:42.134Z,45.61
2023-04-27T11:12:42.974Z,45.79
2023-04-27T11:13:43.007Z,46.00
2023-04-27T11:14:41.961Z,43.96
2023-04-27T11:15:41.968Z,44.16
2023-04-27T11:16:43.037Z,43.96
2023-04-27T11:17:41.861Z,44.98
2023-04-27T11:18:41.739Z,46.30
2023-04-27T11:19:41.628Z,46.10
2023-04-27T11:20:41.549Z,43.96
2023-04-27T11:21:41.487Z,44.18
2023-04-27T11:22:41.584Z,44.53
2023-04-27T11:23:41.365Z,44.73
2023-04-27T11:24:41.330Z,45.14
2023-04-27T11:25:58.646Z,44.84
2023-04-27T11:26:41.184Z,45.45
2023-04-27T11:27:41.140Z,45.22
2023-04-27T11:28:41.054Z,46.83
2023-04-27T11:29:40.980Z,44.37
2023-04-27T11:30:40.925Z,45.57
2023-04-27T11:31:40.896Z,44.32
2023-04-27T11:32:40.847Z,44.92
2023-04-27T11:33:40.768Z,43.69
2023-04-27T11:34:40.699Z,43.37
2023-04-27T11:35:40.633Z,42.13
2023-04-27T11:36:40.561Z,43.85
2023-04-27T11:37:40.476Z,42.10
2023-04-27T11:38:40.555Z,43.53
2023-04-27T11:39:40.355Z,42.10
2023-04-27T11:40:40.293Z,42.31
2023-04-27T11:41:40.244Z,41.60
2023-04-27T11:42:40.223Z,41.70
2023-04-27T11:44:14.876Z,42.00
2023-04-27T11:44:40.241Z,42.51
2023-04-27T11:45:39.987Z,43.02
2023-04-27T11:46:40.000Z,40.39
2023-04-27T11:47:39.858Z,40.94
2023-04-27T11:48:39.817Z,43.20
2023-04-27T11:49:39.770Z,42.10
2023-04-27T11:50:39.697Z,45.57
2023-04-27T11:51:39.591Z,44.53
2023-04-27T11:52:39.551Z,42.98
2023-04-27T11:53:39.529Z,45.71
2023-04-27T11:54:39.445Z,41.92
2023-04-27T11:55:39.369Z,42.27
2023-04-27T11:56:39.345Z,43.59
2023-04-27T11:57:39.258Z,43.18
2023-04-27T11:58:39.165Z,45.40
2023-04-27T11:59:39.100Z,42.94
2023-04-27T12:00:39.040Z,43.12
2023-04-27T12:01:39.022Z,41.31
2023-04-27T12:02:39.142Z,41.25
2023-04-27T12:03:39.227Z,42.51
2023-04-27T12:04:38.899Z,43.73
2023-04-27T12:05:38.860Z,44.45
2023-04-27T12:06:38.991Z,43.30
2023-04-27T12:07:38.640Z,42.18
2023-04-27T12:08:38.624Z,43.00
2023-04-27T12:09:38.480Z,43.10
2023-04-27T12:10:38.445Z,44.02
2023-04-27T12:11:38.385Z,44.02
2023-04-27T12:12:38.324Z,42.30
2023-04-27T12:13:38.215Z,42.92
2023-04-27T12:14:38.236Z,43.20
2023-04-27T12:15:38.079Z,43.29
2023-04-27T12:16:38.929Z,42.49
2023-04-27T12:17:38.029Z,42.69
2023-04-27T12:18:37.951Z,45.04
2023-04-27T12:20:14.677Z,44.40
2023-04-27T12:20:37.799Z,44.61
2023-04-27T12:21:37.701Z,43.08
2023-04-27T12:22:37.697Z,43.00
2023-04-27T12:23:37.598Z,43.94
2023-04-27T12:24:37.557Z,43.32
2023-04-27T12:25:37.525Z,43.73
2023-04-27T12:26:37.444Z,45.06
2023-04-27T12:27:37.335Z,45.45
2023-04-27T12:28:37.301Z,44.55
2023-04-27T12:29:37.199Z,43.32
2023-04-27T12:30:37.237Z,43.32
2023-04-27T12:31:37.206Z,44.34
2023-04-27T12:32:37.056Z,43.94
2023-04-27T12:33:37.016Z,44.85
2023-04-27T12:34:36.890Z,43.71
2023-04-27T12:35:36.884Z,44.63
2023-04-27T12:36:36.800Z,42.90
2023-04-27T12:38:11.361Z,43.00
2023-04-27T12:38:36.666Z,42.90
2023-04-27T12:39:36.652Z,43.61
2023-04-27T12:40:36.517Z,43.51
2023-04-27T12:41:36.467Z,43.49
2023-04-27T12:42:36.421Z,43.59
2023-04-27T12:43:36.410Z,43.49
2023-04-27T12:44:36.336Z,42.77
2023-04-27T12:45:36.246Z,43.69
2023-04-27T12:46:36.220Z,43.49
2023-04-27T12:48:36.032Z,44.28
2023-04-27T12:49:35.954Z,42.96
2023-04-27T12:50:35.912Z,42.94
2023-04-27T12:51:35.856Z,42.94
2023-04-27T12:52:35.757Z,41.49
2023-04-27T12:53:35.697Z,40.78
2023-04-27T12:54:35.649Z,41.49
2023-04-27T12:55:35.643Z,41.21
2023-04-27T12:56:35.510Z,41.84
2023-04-27T12:57:36.145Z,43.47
2023-04-27T12:58:35.444Z,44.08
2023-04-27T12:59:35.375Z,43.08
2023-04-27T13:00:35.306Z,42.98
2023-04-27T13:01:35.358Z,43.29
2023-04-27T13:02:35.324Z,43.69
2023-04-27T13:03:35.260Z,43.37
2023-04-27T13:04:35.288Z,43.77